sensor_id;sensor_type;location;lat;lon;timestamp;temperature;humidity
18456;DHT22;9357;49.900;8.208;2023-11-19T00:00:43;9.10;99.90
18456;DHT22;9357;49.900;8.208;2023-11-19T00:02:24;9.10;99.90
18456;DHT22;9357;49.900;8.208;2023-11-19T00:03:57;9.10;99.90
18456;DHT22;9357;49.900;8.208;2023-11-19T00:05:30;9.10;99.90
18456;DHT22;9357;49.900;8.208;2023-11-19T00:07:03;9.10;99.90
18456;DHT22;9357;49.900;8.208;2023-11-19T00:08:37;9.20;99.90
18456;DHT22;9357;49.900;8.208;2023-11-19T00:10:11;9.20;99.90
18456;DHT22;9357;49.900;8.208;2023-11-19T00:11:43;9.20;99.90
18456;DHT22;9357;49.900;8.208;2023-11-19T00:13:25;9.20;99.90
18456;DHT22;9357;49.900;8.208;2023-11-19T00:14:58;9.20;99.90
18456;DHT22;9357;49.900;8.208;2023-11-19T00:16:29;9.10;99.90
18456;DHT22;9357;49.900;8.208;2023-11-19T00:18:03;9.20;99.90
18456;DHT22;9357;49.900;8.208;2023-11-19T00:19:38;9.10;99.90
18456;DHT22;9357;49.900;8.208;2023-11-19T00:21:10;9.20;99.90
18456;DHT22;9357;49.900;8.208;2023-11-19T00:22:43;9.20;99.90
18456;DHT22;9357;49.900;8.208;2023-11-19T00:24:18;9.10;99.90
18456;DHT22;9357;49.900;8.208;2023-11-19T00:25:51;9.20;99.90
18456;DHT22;9357;49.900;8.208;2023-11-19T00:27:23;9.20;99.90
18456;DHT22;9357;49.900;8.208;2023-11-19T00:28:56;9.20;99.90
18456;DHT22;9357;49.900;8.208;2023-11-19T00:30:29;9.20;99.90
18456;DHT22;9357;49.900;8.208;2023-11-19T00:32:03;9.20;99.90
18456;DHT22;9357;49.900;8.208;2023-11-19T00:33:37;9.20;99.90
18456;DHT22;9357;49.900;8.208;2023-11-19T00:35:22;9.20;99.90
18456;DHT22;9357;49.900;8.208;2023-11-19T00:36:54;9.20;99.90
18456;DHT22;9357;49.900;8.208;2023-11-19T00:38:27;9.20;99.90
18456;DHT22;9357;49.900;8.208;2023-11-19T00:39:59;9.20;99.90
18456;DHT22;9357;49.900;8.208;2023-11-19T00:41:31;9.20;99.90
18456;DHT22;9357;49.900;8.208;2023-11-19T00:43:03;9.20;99.90
18456;DHT22;9357;49.900;8.208;2023-11-19T00:44:36;9.30;99.90
18456;DHT22;9357;49.900;8.208;2023-11-19T00:46:08;9.30;99.90
18456;DHT22;9357;49.900;8.208;2023-11-19T00:47:42;9.20;99.90
18456;DHT22;9357;49.900;8.208;2023-11-19T00:49:15;9.30;99.90
18456;DHT22;9357;49.900;8.208;2023-11-19T00:50:48;9.30;99.90
18456;DHT22;9357;49.900;8.208;2023-11-19T00:52:21;9.30;99.90
18456;DHT22;9357;49.900;8.208;2023-11-19T00:53:53;9.30;99.90
18456;DHT22;9357;49.900;8.208;2023-11-19T00:55:26;9.30;99.90
18456;DHT22;9357;49.900;8.208;2023-11-19T00:56:58;9.30;99.90
18456;DHT22;9357;49.900;8.208;2023-11-19T00:58:32;9.30;99.90
18456;DHT22;9357;49.900;8.208;2023-11-19T01:00:06;9.30;99.90
18456;DHT22;9357;49.900;8.208;2023-11-19T01:01:45;9.30;99.90
18456;DHT22;9357;49.900;8.208;2023-11-19T01:03:19;9.40;99.90
18456;DHT22;9357;49.900;8.208;2023-11-19T01:04:51;9.40;99.90
18456;DHT22;9357;49.900;8.208;2023-11-19T01:06:29;9.40;99.90
18456;DHT22;9357;49.900;8.208;2023-11-19T01:08:01;9.40;99.90
18456;DHT22;9357;49.900;8.208;2023-11-19T01:09:36;9.40;99.90
18456;DHT22;9357;49.900;8.208;2023-11-19T01:11:07;9.40;99.90
18456;DHT22;9357;49.900;8.208;2023-11-19T01:12:40;9.40;99.90
18456;DHT22;9357;49.900;8.208;2023-11-19T01:14:12;9.40;99.90
18456;DHT22;9357;49.900;8.208;2023-11-19T01:15:45;9.50;99.90
18456;DHT22;9357;49.900;8.208;2023-11-19T01:17:17;9.50;99.90
18456;DHT22;9357;49.900;8.208;2023-11-19T01:18:50;9.50;99.90
18456;DHT22;9357;49.900;8.208;2023-11-19T01:20:21;9.50;99.90
18456;DHT22;9357;49.900;8.208;2023-11-19T01:21:56;9.50;99.90
18456;DHT22;9357;49.900;8.208;2023-11-19T01:23:28;9.50;99.90
18456;DHT22;9357;49.900;8.208;2023-11-19T01:25:01;9.60;99.90
18456;DHT22;9357;49.900;8.208;2023-11-19T01:26:32;9.60;99.90
18456;DHT22;9357;49.900;8.208;2023-11-19T01:28:05;9.50;99.90
18456;DHT22;9357;49.900;8.208;2023-11-19T01:29:37;9.50;99.90
18456;DHT22;9357;49.900;8.208;2023-11-19T01:31:11;9.50;99.90
18456;DHT22;9357;49.900;8.208;2023-11-19T01:32:43;9.50;99.90
18456;DHT22;9357;49.900;8.208;2023-11-19T01:34:15;9.50;99.90
18456;DHT22;9357;49.900;8.208;2023-11-19T01:35:47;9.50;99.90
18456;DHT22;9357;49.900;8.208;2023-11-19T01:37:21;9.40;99.90
18456;DHT22;9357;49.900;8.208;2023-11-19T01:38:53;9.40;99.90
18456;DHT22;9357;49.900;8.208;2023-11-19T01:40:26;9.50;99.90
18456;DHT22;9357;49.900;8.208;2023-11-19T01:41:58;9.40;99.90
18456;DHT22;9357;49.900;8.208;2023-11-19T01:43:31;9.50;99.90
18456;DHT22;9357;49.900;8.208;2023-11-19T01:45:05;9.50;99.90
18456;DHT22;9357;49.900;8.208;2023-11-19T01:46:40;9.40;99.90
18456;DHT22;9357;49.900;8.208;2023-11-19T01:48:14;9.50;99.90
18456;DHT22;9357;49.900;8.208;2023-11-19T01:49:46;9.50;99.90
18456;DHT22;9357;49.900;8.208;2023-11-19T01:51:19;9.50;99.90
18456;DHT22;9357;49.900;8.208;2023-11-19T01:52:54;9.60;99.90
18456;DHT22;9357;49.900;8.208;2023-11-19T01:54:29;9.50;99.90
18456;DHT22;9357;49.900;8.208;2023-11-19T01:56:01;9.60;99.90
18456;DHT22;9357;49.900;8.208;2023-11-19T01:57:35;9.60;99.90
18456;DHT22;9357;49.900;8.208;2023-11-19T01:59:10;9.60;99.90
18456;DHT22;9357;49.900;8.208;2023-11-19T02:00:45;9.60;99.90
18456;DHT22;9357;49.900;8.208;2023-11-19T02:02:17;9.70;99.90
18456;DHT22;9357;49.900;8.208;2023-11-19T02:03:52;9.70;99.90
18456;DHT22;9357;49.900;8.208;2023-11-19T02:05:24;9.70;99.90
18456;DHT22;9357;49.900;8.208;2023-11-19T02:06:58;9.70;99.90
18456;DHT22;9357;49.900;8.208;2023-11-19T02:08:32;9.70;99.90
18456;DHT22;9357;49.900;8.208;2023-11-19T02:10:05;9.80;99.90
18456;DHT22;9357;49.900;8.208;2023-11-19T02:11:39;9.80;99.90
18456;DHT22;9357;49.900;8.208;2023-11-19T02:13:12;9.80;99.90
18456;DHT22;9357;49.900;8.208;2023-11-19T02:14:45;9.80;99.90
18456;DHT22;9357;49.900;8.208;2023-11-19T02:16:18;9.80;99.90
18456;DHT22;9357;49.900;8.208;2023-11-19T02:17:50;9.80;99.90
18456;DHT22;9357;49.900;8.208;2023-11-19T02:19:23;9.80;99.90
18456;DHT22;9357;49.900;8.208;2023-11-19T02:20:55;9.80;99.90
18456;DHT22;9357;49.900;8.208;2023-11-19T02:22:28;9.80;99.90
18456;DHT22;9357;49.900;8.208;2023-11-19T02:24:02;9.90;99.90
18456;DHT22;9357;49.900;8.208;2023-11-19T02:25:40;9.90;99.90
18456;DHT22;9357;49.900;8.208;2023-11-19T02:27:17;9.90;99.90
18456;DHT22;9357;49.900;8.208;2023-11-19T02:28:54;9.90;99.90
18456;DHT22;9357;49.900;8.208;2023-11-19T02:30:26;9.90;99.90
18456;DHT22;9357;49.900;8.208;2023-11-19T02:32:00;9.90;99.90
18456;DHT22;9357;49.900;8.208;2023-11-19T02:33:35;9.90;99.90
18456;DHT22;9357;49.900;8.208;2023-11-19T02:35:07;9.90;99.90
18456;DHT22;9357;49.900;8.208;2023-11-19T02:36:40;10.00;99.90
18456;DHT22;9357;49.900;8.208;2023-11-19T02:38:13;10.00;99.90
18456;DHT22;9357;49.900;8.208;2023-11-19T02:39:45;10.00;99.90
18456;DHT22;9357;49.900;8.208;2023-11-19T02:41:18;10.00;99.90
18456;DHT22;9357;49.900;8.208;2023-11-19T02:42:51;10.00;99.90
18456;DHT22;9357;49.900;8.208;2023-11-19T02:44:24;10.00;99.90
18456;DHT22;9357;49.900;8.208;2023-11-19T02:46:00;10.10;99.90
18456;DHT22;9357;49.900;8.208;2023-11-19T02:47:46;10.10;99.90
18456;DHT22;9357;49.900;8.208;2023-11-19T02:49:18;10.10;99.90
18456;DHT22;9357;49.900;8.208;2023-11-19T02:50:51;10.10;99.90
18456;DHT22;9357;49.900;8.208;2023-11-19T02:52:24;10.10;99.90
18456;DHT22;9357;49.900;8.208;2023-11-19T02:53:56;10.10;99.90
18456;DHT22;9357;49.900;8.208;2023-11-19T02:55:28;10.10;99.90
18456;DHT22;9357;49.900;8.208;2023-11-19T02:57:06;10.10;99.90
18456;DHT22;9357;49.900;8.208;2023-11-19T02:58:40;10.10;99.90
18456;DHT22;9357;49.900;8.208;2023-11-19T03:00:15;10.10;99.90
18456;DHT22;9357;49.900;8.208;2023-11-19T03:01:47;10.10;99.90
18456;DHT22;9357;49.900;8.208;2023-11-19T03:03:22;10.20;99.90
18456;DHT22;9357;49.900;8.208;2023-11-19T03:04:57;10.10;99.90
18456;DHT22;9357;49.900;8.208;2023-11-19T03:06:31;10.10;99.90
18456;DHT22;9357;49.900;8.208;2023-11-19T03:08:03;10.20;99.90
18456;DHT22;9357;49.900;8.208;2023-11-19T03:09:36;10.10;99.90
18456;DHT22;9357;49.900;8.208;2023-11-19T03:11:08;10.20;99.90
18456;DHT22;9357;49.900;8.208;2023-11-19T03:12:42;10.20;99.90
18456;DHT22;9357;49.900;8.208;2023-11-19T03:14:14;10.20;99.90
18456;DHT22;9357;49.900;8.208;2023-11-19T03:15:48;10.20;99.90
18456;DHT22;9357;49.900;8.208;2023-11-19T03:17:19;10.20;99.90
18456;DHT22;9357;49.900;8.208;2023-11-19T03:18:53;10.20;99.90
18456;DHT22;9357;49.900;8.208;2023-11-19T03:20:26;10.20;99.90
18456;DHT22;9357;49.900;8.208;2023-11-19T03:21:59;10.20;99.90
18456;DHT22;9357;49.900;8.208;2023-11-19T03:23:33;10.20;99.90
18456;DHT22;9357;49.900;8.208;2023-11-19T03:25:05;10.20;99.90
18456;DHT22;9357;49.900;8.208;2023-11-19T03:26:40;10.20;99.90
18456;DHT22;9357;49.900;8.208;2023-11-19T03:28:11;10.20;99.90
18456;DHT22;9357;49.900;8.208;2023-11-19T03:29:45;10.20;99.90
18456;DHT22;9357;49.900;8.208;2023-11-19T03:31:18;10.20;99.90
18456;DHT22;9357;49.900;8.208;2023-11-19T03:32:51;10.20;99.90
18456;DHT22;9357;49.900;8.208;2023-11-19T03:34:23;10.20;99.90
18456;DHT22;9357;49.900;8.208;2023-11-19T03:35:56;10.30;99.90
18456;DHT22;9357;49.900;8.208;2023-11-19T03:37:29;10.20;99.90
18456;DHT22;9357;49.900;8.208;2023-11-19T03:39:01;10.30;99.90
18456;DHT22;9357;49.900;8.208;2023-11-19T03:40:35;10.20;99.90
18456;DHT22;9357;49.900;8.208;2023-11-19T03:42:07;10.30;99.90
18456;DHT22;9357;49.900;8.208;2023-11-19T03:43:40;10.30;99.90
18456;DHT22;9357;49.900;8.208;2023-11-19T03:45:12;10.30;99.90
18456;DHT22;9357;49.900;8.208;2023-11-19T03:46:47;10.30;99.90
18456;DHT22;9357;49.900;8.208;2023-11-19T03:48:18;10.30;99.90
18456;DHT22;9357;49.900;8.208;2023-11-19T03:49:51;10.30;99.90
18456;DHT22;9357;49.900;8.208;2023-11-19T03:51:23;10.30;99.90
18456;DHT22;9357;49.900;8.208;2023-11-19T03:52:56;10.30;99.90
18456;DHT22;9357;49.900;8.208;2023-11-19T03:54:28;10.30;99.90
18456;DHT22;9357;49.900;8.208;2023-11-19T03:56:00;10.30;99.90
18456;DHT22;9357;49.900;8.208;2023-11-19T03:57:32;10.40;99.90
18456;DHT22;9357;49.900;8.208;2023-11-19T03:59:05;10.40;99.90
18456;DHT22;9357;49.900;8.208;2023-11-19T04:00:37;10.40;99.90
18456;DHT22;9357;49.900;8.208;2023-11-19T04:02:11;10.40;99.90
18456;DHT22;9357;49.900;8.208;2023-11-19T04:03:42;10.40;99.90
18456;DHT22;9357;49.900;8.208;2023-11-19T04:05:18;10.40;99.90
18456;DHT22;9357;49.900;8.208;2023-11-19T04:06:51;10.40;99.90
18456;DHT22;9357;49.900;8.208;2023-11-19T04:08:23;10.40;99.90
18456;DHT22;9357;49.900;8.208;2023-11-19T04:09:55;10.40;99.90
18456;DHT22;9357;49.900;8.208;2023-11-19T04:11:27;10.40;99.90
18456;DHT22;9357;49.900;8.208;2023-11-19T04:13:00;10.40;99.90
18456;DHT22;9357;49.900;8.208;2023-11-19T04:14:32;10.40;99.90
18456;DHT22;9357;49.900;8.208;2023-11-19T04:16:06;10.40;99.90
18456;DHT22;9357;49.900;8.208;2023-11-19T04:17:39;10.40;99.90
18456;DHT22;9357;49.900;8.208;2023-11-19T04:19:12;10.50;99.90
18456;DHT22;9357;49.900;8.208;2023-11-19T04:20:44;10.50;99.90
18456;DHT22;9357;49.900;8.208;2023-11-19T04:22:16;10.50;99.90
18456;DHT22;9357;49.900;8.208;2023-11-19T04:23:48;10.50;99.90
18456;DHT22;9357;49.900;8.208;2023-11-19T04:25:21;10.50;99.90
18456;DHT22;9357;49.900;8.208;2023-11-19T04:26:53;10.50;99.90
18456;DHT22;9357;49.900;8.208;2023-11-19T04:28:25;10.50;99.90
18456;DHT22;9357;49.900;8.208;2023-11-19T04:29:58;10.50;99.90
18456;DHT22;9357;49.900;8.208;2023-11-19T04:31:33;10.50;99.90
18456;DHT22;9357;49.900;8.208;2023-11-19T04:33:06;10.50;99.90
18456;DHT22;9357;49.900;8.208;2023-11-19T04:34:39;10.50;99.90
18456;DHT22;9357;49.900;8.208;2023-11-19T04:36:10;10.50;99.90
18456;DHT22;9357;49.900;8.208;2023-11-19T04:37:45;10.50;99.90
18456;DHT22;9357;49.900;8.208;2023-11-19T04:39:18;10.50;99.90
18456;DHT22;9357;49.900;8.208;2023-11-19T04:40:51;10.50;99.90
18456;DHT22;9357;49.900;8.208;2023-11-19T04:42:23;10.50;99.90
18456;DHT22;9357;49.900;8.208;2023-11-19T04:43:56;10.50;99.90
18456;DHT22;9357;49.900;8.208;2023-11-19T04:45:28;10.50;99.90
18456;DHT22;9357;49.900;8.208;2023-11-19T04:47:01;10.50;99.90
18456;DHT22;9357;49.900;8.208;2023-11-19T04:48:34;10.60;99.90
18456;DHT22;9357;49.900;8.208;2023-11-19T04:50:10;10.60;99.90
18456;DHT22;9357;49.900;8.208;2023-11-19T04:51:43;10.60;99.90
18456;DHT22;9357;49.900;8.208;2023-11-19T04:53:16;10.60;99.90
18456;DHT22;9357;49.900;8.208;2023-11-19T04:54:48;10.60;99.90
18456;DHT22;9357;49.900;8.208;2023-11-19T04:56:21;10.60;99.90
18456;DHT22;9357;49.900;8.208;2023-11-19T04:57:54;10.60;99.90
18456;DHT22;9357;49.900;8.208;2023-11-19T04:59:27;10.60;99.90
18456;DHT22;9357;49.900;8.208;2023-11-19T05:00:59;10.60;99.90
18456;DHT22;9357;49.900;8.208;2023-11-19T05:02:32;10.60;99.90
18456;DHT22;9357;49.900;8.208;2023-11-19T05:04:05;10.60;99.90
18456;DHT22;9357;49.900;8.208;2023-11-19T05:05:38;10.60;99.90
18456;DHT22;9357;49.900;8.208;2023-11-19T05:07:09;10.60;99.90
18456;DHT22;9357;49.900;8.208;2023-11-19T05:08:42;10.70;99.90
18456;DHT22;9357;49.900;8.208;2023-11-19T05:10:14;10.60;99.90
18456;DHT22;9357;49.900;8.208;2023-11-19T05:11:47;10.70;99.90
18456;DHT22;9357;49.900;8.208;2023-11-19T05:13:23;10.60;99.90
18456;DHT22;9357;49.900;8.208;2023-11-19T05:14:55;10.60;99.90
18456;DHT22;9357;49.900;8.208;2023-11-19T05:16:27;10.70;99.90
18456;DHT22;9357;49.900;8.208;2023-11-19T05:18:00;10.70;99.90
18456;DHT22;9357;49.900;8.208;2023-11-19T05:19:33;10.70;99.90
18456;DHT22;9357;49.900;8.208;2023-11-19T05:21:06;10.70;99.90
18456;DHT22;9357;49.900;8.208;2023-11-19T05:22:38;10.70;99.90
18456;DHT22;9357;49.900;8.208;2023-11-19T05:24:11;10.70;99.90
18456;DHT22;9357;49.900;8.208;2023-11-19T05:25:43;10.70;99.90
18456;DHT22;9357;49.900;8.208;2023-11-19T05:27:17;10.80;99.90
18456;DHT22;9357;49.900;8.208;2023-11-19T05:28:50;10.80;99.90
18456;DHT22;9357;49.900;8.208;2023-11-19T05:30:23;10.80;99.90
18456;DHT22;9357;49.900;8.208;2023-11-19T05:31:55;10.80;99.90
18456;DHT22;9357;49.900;8.208;2023-11-19T05:33:28;10.80;99.90
18456;DHT22;9357;49.900;8.208;2023-11-19T05:35:01;10.80;99.90
18456;DHT22;9357;49.900;8.208;2023-11-19T05:36:34;10.80;99.90
18456;DHT22;9357;49.900;8.208;2023-11-19T05:38:06;10.90;99.90
18456;DHT22;9357;49.900;8.208;2023-11-19T05:39:38;10.80;99.90
18456;DHT22;9357;49.900;8.208;2023-11-19T05:41:10;10.90;99.90
18456;DHT22;9357;49.900;8.208;2023-11-19T05:42:43;10.90;99.90
18456;DHT22;9357;49.900;8.208;2023-11-19T05:44:15;10.90;99.90
18456;DHT22;9357;49.900;8.208;2023-11-19T05:45:48;10.90;99.90
18456;DHT22;9357;49.900;8.208;2023-11-19T05:47:19;10.90;99.90
18456;DHT22;9357;49.900;8.208;2023-11-19T05:48:52;10.90;99.90
18456;DHT22;9357;49.900;8.208;2023-11-19T05:50:25;10.90;99.90
18456;DHT22;9357;49.900;8.208;2023-11-19T05:51:59;10.90;99.90
18456;DHT22;9357;49.900;8.208;2023-11-19T05:53:33;10.90;99.90
18456;DHT22;9357;49.900;8.208;2023-11-19T05:55:06;10.90;99.90
18456;DHT22;9357;49.900;8.208;2023-11-19T05:56:41;11.00;99.90
18456;DHT22;9357;49.900;8.208;2023-11-19T05:58:14;10.90;99.90
18456;DHT22;9357;49.900;8.208;2023-11-19T05:59:46;10.90;99.90
18456;DHT22;9357;49.900;8.208;2023-11-19T06:01:19;11.00;99.90
18456;DHT22;9357;49.900;8.208;2023-11-19T06:02:51;11.00;99.90
18456;DHT22;9357;49.900;8.208;2023-11-19T06:04:24;11.00;99.90
18456;DHT22;9357;49.900;8.208;2023-11-19T06:05:57;11.00;99.90
18456;DHT22;9357;49.900;8.208;2023-11-19T06:07:30;11.00;99.90
18456;DHT22;9357;49.900;8.208;2023-11-19T06:09:02;11.00;99.90
18456;DHT22;9357;49.900;8.208;2023-11-19T06:10:41;11.00;99.90
18456;DHT22;9357;49.900;8.208;2023-11-19T06:12:13;11.10;99.90
18456;DHT22;9357;49.900;8.208;2023-11-19T06:13:46;11.10;99.90
18456;DHT22;9357;49.900;8.208;2023-11-19T06:15:19;11.10;99.90
18456;DHT22;9357;49.900;8.208;2023-11-19T06:16:51;11.10;99.90
18456;DHT22;9357;49.900;8.208;2023-11-19T06:18:24;11.10;99.90
18456;DHT22;9357;49.900;8.208;2023-11-19T06:19:57;11.10;99.90
18456;DHT22;9357;49.900;8.208;2023-11-19T06:21:30;11.10;99.90
18456;DHT22;9357;49.900;8.208;2023-11-19T06:23:03;11.10;99.90
18456;DHT22;9357;49.900;8.208;2023-11-19T06:24:34;11.20;99.90
18456;DHT22;9357;49.900;8.208;2023-11-19T06:26:10;11.10;99.90
18456;DHT22;9357;49.900;8.208;2023-11-19T06:27:42;11.20;99.90
18456;DHT22;9357;49.900;8.208;2023-11-19T06:29:15;11.20;99.90
18456;DHT22;9357;49.900;8.208;2023-11-19T06:30:50;11.20;99.90
18456;DHT22;9357;49.900;8.208;2023-11-19T06:32:23;11.20;99.90
18456;DHT22;9357;49.900;8.208;2023-11-19T06:33:54;11.20;99.90
18456;DHT22;9357;49.900;8.208;2023-11-19T06:35:27;11.20;99.90
18456;DHT22;9357;49.900;8.208;2023-11-19T06:37:02;11.20;99.90
18456;DHT22;9357;49.900;8.208;2023-11-19T06:38:35;11.20;99.90
18456;DHT22;9357;49.900;8.208;2023-11-19T06:40:08;11.20;99.90
18456;DHT22;9357;49.900;8.208;2023-11-19T06:41:44;11.20;99.90
18456;DHT22;9357;49.900;8.208;2023-11-19T06:43:16;11.20;99.90
18456;DHT22;9357;49.900;8.208;2023-11-19T06:44:49;11.30;99.90
18456;DHT22;9357;49.900;8.208;2023-11-19T06:46:21;11.30;99.90
18456;DHT22;9357;49.900;8.208;2023-11-19T06:47:54;11.20;99.90
18456;DHT22;9357;49.900;8.208;2023-11-19T06:49:26;11.20;99.90
18456;DHT22;9357;49.900;8.208;2023-11-19T06:50:59;11.20;99.90
18456;DHT22;9357;49.900;8.208;2023-11-19T06:52:32;11.20;99.90
18456;DHT22;9357;49.900;8.208;2023-11-19T06:54:06;11.20;99.90
18456;DHT22;9357;49.900;8.208;2023-11-19T06:55:37;11.20;99.90
18456;DHT22;9357;49.900;8.208;2023-11-19T06:57:10;11.20;99.90
18456;DHT22;9357;49.900;8.208;2023-11-19T06:58:42;11.20;99.90
18456;DHT22;9357;49.900;8.208;2023-11-19T07:00:15;11.20;99.90
18456;DHT22;9357;49.900;8.208;2023-11-19T07:01:49;11.20;99.90
18456;DHT22;9357;49.900;8.208;2023-11-19T07:03:21;11.20;99.90
18456;DHT22;9357;49.900;8.208;2023-11-19T07:04:54;11.20;99.90
18456;DHT22;9357;49.900;8.208;2023-11-19T07:06:26;11.20;99.90
18456;DHT22;9357;49.900;8.208;2023-11-19T07:08:03;11.20;99.90
18456;DHT22;9357;49.900;8.208;2023-11-19T07:09:35;11.20;99.90
18456;DHT22;9357;49.900;8.208;2023-11-19T07:11:09;11.20;99.90
18456;DHT22;9357;49.900;8.208;2023-11-19T07:12:43;11.10;99.90
18456;DHT22;9357;49.900;8.208;2023-11-19T07:14:16;11.20;99.90
18456;DHT22;9357;49.900;8.208;2023-11-19T07:15:48;11.10;99.90
18456;DHT22;9357;49.900;8.208;2023-11-19T07:17:21;11.10;99.90
18456;DHT22;9357;49.900;8.208;2023-11-19T07:18:53;11.10;99.90
18456;DHT22;9357;49.900;8.208;2023-11-19T07:20:25;11.20;99.90
18456;DHT22;9357;49.900;8.208;2023-11-19T07:21:58;11.10;99.90
18456;DHT22;9357;49.900;8.208;2023-11-19T07:23:32;11.10;99.90
18456;DHT22;9357;49.900;8.208;2023-11-19T07:25:06;11.10;99.90
18456;DHT22;9357;49.900;8.208;2023-11-19T07:26:42;11.20;99.90
18456;DHT22;9357;49.900;8.208;2023-11-19T07:28:15;11.10;99.90
18456;DHT22;9357;49.900;8.208;2023-11-19T07:29:48;11.10;99.90
18456;DHT22;9357;49.900;8.208;2023-11-19T07:31:20;11.10;99.90
18456;DHT22;9357;49.900;8.208;2023-11-19T07:32:53;11.10;99.90
18456;DHT22;9357;49.900;8.208;2023-11-19T07:34:25;11.20;99.90
18456;DHT22;9357;49.900;8.208;2023-11-19T07:35:57;11.10;99.90
18456;DHT22;9357;49.900;8.208;2023-11-19T07:37:29;11.20;99.90
18456;DHT22;9357;49.900;8.208;2023-11-19T07:39:03;11.10;99.90
18456;DHT22;9357;49.900;8.208;2023-11-19T07:40:36;11.10;99.90
18456;DHT22;9357;49.900;8.208;2023-11-19T07:42:09;11.10;99.90
18456;DHT22;9357;49.900;8.208;2023-11-19T07:43:42;11.10;99.90
18456;DHT22;9357;49.900;8.208;2023-11-19T07:45:16;11.10;99.90
18456;DHT22;9357;49.900;8.208;2023-11-19T07:46:48;11.10;99.90
18456;DHT22;9357;49.900;8.208;2023-11-19T07:48:21;11.10;99.90
18456;DHT22;9357;49.900;8.208;2023-11-19T07:49:55;11.10;99.90
18456;DHT22;9357;49.900;8.208;2023-11-19T07:51:27;11.10;99.90
18456;DHT22;9357;49.900;8.208;2023-11-19T07:52:59;11.10;99.90
18456;DHT22;9357;49.900;8.208;2023-11-19T07:54:35;11.10;99.90
18456;DHT22;9357;49.900;8.208;2023-11-19T07:56:07;11.10;99.90
18456;DHT22;9357;49.900;8.208;2023-11-19T07:57:40;11.20;99.90
18456;DHT22;9357;49.900;8.208;2023-11-19T07:59:12;11.20;99.90
18456;DHT22;9357;49.900;8.208;2023-11-19T08:00:44;11.20;99.90
18456;DHT22;9357;49.900;8.208;2023-11-19T08:02:16;11.20;99.90
18456;DHT22;9357;49.900;8.208;2023-11-19T08:03:50;11.20;99.90
18456;DHT22;9357;49.900;8.208;2023-11-19T08:05:24;11.20;99.90
18456;DHT22;9357;49.900;8.208;2023-11-19T08:06:57;11.20;99.90
18456;DHT22;9357;49.900;8.208;2023-11-19T08:08:29;11.20;99.90
18456;DHT22;9357;49.900;8.208;2023-11-19T08:10:06;11.30;99.90
18456;DHT22;9357;49.900;8.208;2023-11-19T08:11:41;11.30;99.90
18456;DHT22;9357;49.900;8.208;2023-11-19T08:13:14;11.30;99.90
18456;DHT22;9357;49.900;8.208;2023-11-19T08:14:46;11.30;99.90
18456;DHT22;9357;49.900;8.208;2023-11-19T08:16:18;11.30;99.90
18456;DHT22;9357;49.900;8.208;2023-11-19T08:17:50;11.30;99.90
18456;DHT22;9357;49.900;8.208;2023-11-19T08:19:23;11.30;99.90
18456;DHT22;9357;49.900;8.208;2023-11-19T08:20:55;11.40;99.90
18456;DHT22;9357;49.900;8.208;2023-11-19T08:22:29;11.40;99.90
18456;DHT22;9357;49.900;8.208;2023-11-19T08:24:01;11.50;99.90
18456;DHT22;9357;49.900;8.208;2023-11-19T08:25:36;11.50;99.90
18456;DHT22;9357;49.900;8.208;2023-11-19T08:27:08;11.50;99.90
18456;DHT22;9357;49.900;8.208;2023-11-19T08:28:40;11.50;99.90
18456;DHT22;9357;49.900;8.208;2023-11-19T08:30:13;11.60;99.90
18456;DHT22;9357;49.900;8.208;2023-11-19T08:31:46;11.60;99.90
18456;DHT22;9357;49.900;8.208;2023-11-19T08:33:17;11.70;99.90
18456;DHT22;9357;49.900;8.208;2023-11-19T08:34:50;11.70;99.90
18456;DHT22;9357;49.900;8.208;2023-11-19T08:36:22;11.70;99.90
18456;DHT22;9357;49.900;8.208;2023-11-19T08:37:58;11.70;99.90
18456;DHT22;9357;49.900;8.208;2023-11-19T08:39:31;11.80;99.90
18456;DHT22;9357;49.900;8.208;2023-11-19T08:41:04;11.80;99.90
18456;DHT22;9357;49.900;8.208;2023-11-19T08:42:37;11.80;99.90
18456;DHT22;9357;49.900;8.208;2023-11-19T08:44:10;11.80;99.90
18456;DHT22;9357;49.900;8.208;2023-11-19T08:45:43;11.80;99.90
18456;DHT22;9357;49.900;8.208;2023-11-19T08:47:15;11.90;99.90
18456;DHT22;9357;49.900;8.208;2023-11-19T08:48:49;11.90;99.90
18456;DHT22;9357;49.900;8.208;2023-11-19T08:50:21;11.90;99.90
18456;DHT22;9357;49.900;8.208;2023-11-19T08:51:54;11.90;99.90
18456;DHT22;9357;49.900;8.208;2023-11-19T08:53:26;12.00;99.90
18456;DHT22;9357;49.900;8.208;2023-11-19T08:54:58;11.90;99.90
18456;DHT22;9357;49.900;8.208;2023-11-19T08:56:31;12.00;99.90
18456;DHT22;9357;49.900;8.208;2023-11-19T08:58:06;12.00;99.90
18456;DHT22;9357;49.900;8.208;2023-11-19T08:59:38;12.00;99.90
18456;DHT22;9357;49.900;8.208;2023-11-19T09:01:11;12.00;99.90
18456;DHT22;9357;49.900;8.208;2023-11-19T09:02:42;12.00;99.90
18456;DHT22;9357;49.900;8.208;2023-11-19T09:04:15;12.00;99.90
18456;DHT22;9357;49.900;8.208;2023-11-19T09:05:48;12.10;99.90
18456;DHT22;9357;49.900;8.208;2023-11-19T09:07:20;12.10;99.90
18456;DHT22;9357;49.900;8.208;2023-11-19T09:08:53;12.10;99.90
18456;DHT22;9357;49.900;8.208;2023-11-19T09:10:29;12.10;99.90
18456;DHT22;9357;49.900;8.208;2023-11-19T09:12:03;12.10;99.90
18456;DHT22;9357;49.900;8.208;2023-11-19T09:13:36;12.20;99.90
18456;DHT22;9357;49.900;8.208;2023-11-19T09:15:08;12.20;99.90
18456;DHT22;9357;49.900;8.208;2023-11-19T09:16:42;12.20;99.90
18456;DHT22;9357;49.900;8.208;2023-11-19T09:18:14;12.20;99.90
18456;DHT22;9357;49.900;8.208;2023-11-19T09:19:47;12.20;99.90
18456;DHT22;9357;49.900;8.208;2023-11-19T09:21:19;12.20;99.90
18456;DHT22;9357;49.900;8.208;2023-11-19T09:22:51;12.20;99.90
18456;DHT22;9357;49.900;8.208;2023-11-19T09:24:23;12.20;99.90
18456;DHT22;9357;49.900;8.208;2023-11-19T09:25:56;12.20;99.90
18456;DHT22;9357;49.900;8.208;2023-11-19T09:27:29;12.30;99.90
18456;DHT22;9357;49.900;8.208;2023-11-19T09:29:02;12.20;99.90
18456;DHT22;9357;49.900;8.208;2023-11-19T09:30:34;12.20;99.90
18456;DHT22;9357;49.900;8.208;2023-11-19T09:32:06;12.20;99.90
18456;DHT22;9357;49.900;8.208;2023-11-19T09:33:39;12.20;99.90
18456;DHT22;9357;49.900;8.208;2023-11-19T09:35:12;12.20;99.90
18456;DHT22;9357;49.900;8.208;2023-11-19T09:36:46;12.30;99.90
18456;DHT22;9357;49.900;8.208;2023-11-19T09:38:18;12.30;99.90
18456;DHT22;9357;49.900;8.208;2023-11-19T09:39:50;12.30;99.90
18456;DHT22;9357;49.900;8.208;2023-11-19T09:41:23;12.30;99.90
18456;DHT22;9357;49.900;8.208;2023-11-19T09:42:58;12.40;99.90
18456;DHT22;9357;49.900;8.208;2023-11-19T09:44:30;12.40;99.90
18456;DHT22;9357;49.900;8.208;2023-11-19T09:46:05;12.40;99.90
18456;DHT22;9357;49.900;8.208;2023-11-19T09:47:38;12.40;99.90
18456;DHT22;9357;49.900;8.208;2023-11-19T09:49:11;12.40;99.90
18456;DHT22;9357;49.900;8.208;2023-11-19T09:50:45;12.40;99.90
18456;DHT22;9357;49.900;8.208;2023-11-19T09:52:19;12.50;99.90
18456;DHT22;9357;49.900;8.208;2023-11-19T09:53:51;12.50;99.90
18456;DHT22;9357;49.900;8.208;2023-11-19T09:55:24;12.50;99.90
18456;DHT22;9357;49.900;8.208;2023-11-19T09:56:58;12.50;99.90
18456;DHT22;9357;49.900;8.208;2023-11-19T09:58:35;12.50;99.90
18456;DHT22;9357;49.900;8.208;2023-11-19T10:00:08;12.50;99.90